sensor_id;sensor_type;location;lat;lon;timestamp;pressure;altitude;pressure_sealevel;temperature;humidity
56737;BME280;42618;51.226;4.910;2022-07-23T00:01:27;49519.69;;;-146.94;91.44
56737;BME280;42618;51.226;4.910;2022-07-23T00:03:55;49543.59;;;-146.94;91.70
56737;BME280;42618;51.226;4.910;2022-07-23T00:06:23;49511.72;;;-146.94;91.66
56737;BME280;42618;51.226;4.910;2022-07-23T00:08:50;49543.59;;;-146.94;91.58
56737;BME280;42618;51.226;4.910;2022-07-23T00:11:17;49535.63;;;-146.94;92.00
56737;BME280;42618;51.226;4.910;2022-07-23T00:13:44;49547.59;;;-146.94;91.36
56737;BME280;42618;51.226;4.910;2022-07-23T00:16:11;49547.59;;;-146.94;91.68
56737;BME280;42618;51.226;4.910;2022-07-23T00:18:38;49511.72;;;-146.94;90.72
56737;BME280;42618;51.226;4.910;2022-07-23T00:21:04;49547.59;;;-146.94;90.66
56737;BME280;42618;51.226;4.910;2022-07-23T00:23:31;49547.59;;;-146.94;91.75
56737;BME280;42618;51.226;4.910;2022-07-23T00:25:58;49539.63;;;-146.94;91.73
56737;BME280;42618;51.226;4.910;2022-07-23T00:28:25;49519.69;;;-146.94;91.40
56737;BME280;42618;51.226;4.910;2022-07-23T00:30:52;49513.69;;;-146.94;92.06
56737;BME280;42618;51.226;4.910;2022-07-23T00:33:19;49547.59;;;-146.94;92.16
56737;BME280;42618;51.226;4.910;2022-07-23T00:35:46;49531.63;;;-146.94;92.27
56737;BME280;42618;51.226;4.910;2022-07-23T00:38:13;49555.56;;;-146.94;91.63
56737;BME280;42618;51.226;4.910;2022-07-23T00:40:40;49553.56;;;-146.94;92.56
56737;BME280;42618;51.226;4.910;2022-07-23T00:43:07;49561.53;;;-146.94;92.63
56737;BME280;42618;51.226;4.910;2022-07-23T00:45:34;49549.59;;;-146.94;92.98
56737;BME280;42618;51.226;4.910;2022-07-23T00:48:01;49559.56;;;-146.94;92.88
56737;BME280;42618;51.226;4.910;2022-07-23T00:50:28;49543.59;;;-146.94;92.88
56737;BME280;42618;51.226;4.910;2022-07-23T00:52:56;49551.56;;;-146.94;93.17
56737;BME280;42618;51.226;4.910;2022-07-23T00:55:22;49543.59;;;-146.94;92.78
56737;BME280;42618;51.226;4.910;2022-07-23T00:57:50;49543.59;;;-146.94;92.63
56737;BME280;42618;51.226;4.910;2022-07-23T01:00:19;49499.75;;;-146.94;93.25
56737;BME280;42618;51.226;4.910;2022-07-23T01:02:45;49549.59;;;-146.94;93.54
56737;BME280;42618;51.226;4.910;2022-07-23T01:05:14;49547.59;;;-146.94;93.03
56737;BME280;42618;51.226;4.910;2022-07-23T01:07:42;49543.59;;;-146.94;93.15
56737;BME280;42618;51.226;4.910;2022-07-23T01:10:09;49567.53;;;-146.94;93.28
56737;BME280;42618;51.226;4.910;2022-07-23T01:12:55;49535.63;;;-146.94;93.40
56737;BME280;42618;51.226;4.910;2022-07-23T01:15:22;49519.69;;;-146.94;93.43
56737;BME280;42618;51.226;4.910;2022-07-23T01:17:49;49527.66;;;-146.94;93.58
56737;BME280;42618;51.226;4.910;2022-07-23T01:20:17;49555.56;;;-146.94;93.83
56737;BME280;42618;51.226;4.910;2022-07-23T01:22:44;49535.63;;;-146.94;93.78
56737;BME280;42618;51.226;4.910;2022-07-23T01:25:12;49535.63;;;-146.94;93.37
56737;BME280;42618;51.226;4.910;2022-07-23T01:27:44;49557.56;;;-146.94;93.17
56737;BME280;42618;51.226;4.910;2022-07-23T01:30:11;49519.69;;;-146.94;93.35
56737;BME280;42618;51.226;4.910;2022-07-23T01:32:38;49583.47;;;-146.94;94.15
56737;BME280;42618;51.226;4.910;2022-07-23T01:35:06;49587.47;;;-146.94;94.42
56737;BME280;42618;51.226;4.910;2022-07-23T01:37:34;49579.47;;;-146.94;94.05
56737;BME280;42618;51.226;4.910;2022-07-23T01:40:03;49545.59;;;-146.94;94.36
56737;BME280;42618;51.226;4.910;2022-07-23T01:42:31;49555.56;;;-146.94;94.35
56737;BME280;42618;51.226;4.910;2022-07-23T01:45:03;49559.56;;;-146.94;94.60
56737;BME280;42618;51.226;4.910;2022-07-23T01:47:30;49545.59;;;-146.94;94.22
56737;BME280;42618;51.226;4.910;2022-07-23T01:49:57;49577.50;;;-146.94;94.13
56737;BME280;42618;51.226;4.910;2022-07-23T01:52:35;49527.66;;;-146.94;93.94
56737;BME280;42618;51.226;4.910;2022-07-23T01:55:02;49567.53;;;-146.94;93.62
56737;BME280;42618;51.226;4.910;2022-07-23T01:57:29;49549.59;;;-146.94;93.88
56737;BME280;42618;51.226;4.910;2022-07-23T01:59:56;49581.47;;;-146.94;94.04
56737;BME280;42618;51.226;4.910;2022-07-23T02:02:24;49555.56;;;-146.94;93.39
56737;BME280;42618;51.226;4.910;2022-07-23T02:04:52;49533.63;;;-146.94;94.20
56737;BME280;42618;51.226;4.910;2022-07-23T02:07:20;49525.66;;;-146.94;94.12
56737;BME280;42618;51.226;4.910;2022-07-23T02:09:47;49567.53;;;-146.94;94.31
56737;BME280;42618;51.226;4.910;2022-07-23T02:12:14;49579.47;;;-146.94;93.87
56737;BME280;42618;51.226;4.910;2022-07-23T02:14:43;49575.50;;;-146.94;93.74
56737;BME280;42618;51.226;4.910;2022-07-23T02:17:11;49559.56;;;-146.94;94.22
56737;BME280;42618;51.226;4.910;2022-07-23T02:19:37;49547.59;;;-146.94;94.40
56737;BME280;42618;51.226;4.910;2022-07-23T02:22:04;49559.56;;;-146.94;94.62
56737;BME280;42618;51.226;4.910;2022-07-23T02:24:31;49591.44;;;-146.94;94.98
56737;BME280;42618;51.226;4.910;2022-07-23T02:26:57;49575.50;;;-146.94;94.97
56737;BME280;42618;51.226;4.910;2022-07-23T02:29:25;49537.63;;;-146.94;94.76
56737;BME280;42618;51.226;4.910;2022-07-23T02:31:53;49583.47;;;-146.94;94.90
56737;BME280;42618;51.226;4.910;2022-07-23T02:34:20;49527.66;;;-146.94;95.54
56737;BME280;42618;51.226;4.910;2022-07-23T02:36:46;49539.63;;;-146.94;95.53
56737;BME280;42618;51.226;4.910;2022-07-23T02:39:13;49563.53;;;-146.94;95.73
56737;BME280;42618;51.226;4.910;2022-07-23T02:41:40;49619.34;;;-146.94;95.53
56737;BME280;42618;51.226;4.910;2022-07-23T02:44:07;49563.53;;;-146.94;95.84
56737;BME280;42618;51.226;4.910;2022-07-23T02:46:36;49555.56;;;-146.94;95.90
56737;BME280;42618;51.226;4.910;2022-07-23T02:49:03;49601.41;;;-146.94;95.91
56737;BME280;42618;51.226;4.910;2022-07-23T02:51:32;49561.53;;;-146.94;96.12
56737;BME280;42618;51.226;4.910;2022-07-23T02:54:02;49563.53;;;-146.94;95.67
56737;BME280;42618;51.226;4.910;2022-07-23T02:56:29;49577.50;;;-146.94;95.34
56737;BME280;42618;51.226;4.910;2022-07-23T02:58:56;49593.44;;;-146.94;94.97
56737;BME280;42618;51.226;4.910;2022-07-23T03:01:23;49599.41;;;-146.94;95.32
56737;BME280;42618;51.226;4.910;2022-07-23T03:03:50;49541.59;;;-146.94;95.81
56737;BME280;42618;51.226;4.910;2022-07-23T03:06:17;49551.56;;;-146.94;95.73
56737;BME280;42618;51.226;4.910;2022-07-23T03:08:44;49571.50;;;-146.94;95.32
56737;BME280;42618;51.226;4.910;2022-07-23T03:11:11;49547.59;;;-146.94;95.20
56737;BME280;42618;51.226;4.910;2022-07-23T03:13:40;49567.53;;;-146.94;95.36
56737;BME280;42618;51.226;4.910;2022-07-23T03:16:07;49587.47;;;-146.94;95.95
56737;BME280;42618;51.226;4.910;2022-07-23T03:18:35;49597.44;;;-146.94;95.56
56737;BME280;42618;51.226;4.910;2022-07-23T03:21:07;49563.53;;;-146.94;95.59
56737;BME280;42618;51.226;4.910;2022-07-23T03:23:34;49575.50;;;-146.94;95.36
56737;BME280;42618;51.226;4.910;2022-07-23T03:26:01;49575.50;;;-146.94;95.57
56737;BME280;42618;51.226;4.910;2022-07-23T03:28:28;49551.56;;;-146.94;95.18
56737;BME280;42618;51.226;4.910;2022-07-23T03:30:55;49563.53;;;-146.94;94.75
56737;BME280;42618;51.226;4.910;2022-07-23T03:33:23;49589.44;;;-146.94;95.44
56737;BME280;42618;51.226;4.910;2022-07-23T03:35:50;49543.59;;;-146.94;95.73
56737;BME280;42618;51.226;4.910;2022-07-23T03:38:28;49599.41;;;-146.94;96.15
56737;BME280;42618;51.226;4.910;2022-07-23T03:40:55;49589.44;;;-146.94;96.19
56737;BME280;42618;51.226;4.910;2022-07-23T03:43:22;49587.47;;;-146.94;96.53
56737;BME280;42618;51.226;4.910;2022-07-23T03:45:50;49583.47;;;-146.94;96.04
56737;BME280;42618;51.226;4.910;2022-07-23T03:48:18;49567.53;;;-146.94;96.12
56737;BME280;42618;51.226;4.910;2022-07-23T03:50:44;49569.50;;;-146.94;96.66
56737;BME280;42618;51.226;4.910;2022-07-23T03:53:12;49599.41;;;-146.94;96.46
56737;BME280;42618;51.226;4.910;2022-07-23T03:55:39;49633.31;;;-146.94;96.33
56737;BME280;42618;51.226;4.910;2022-07-23T03:58:05;49585.47;;;-146.94;95.64
56737;BME280;42618;51.226;4.910;2022-07-23T04:00:33;49599.41;;;-146.94;95.84
56737;BME280;42618;51.226;4.910;2022-07-23T04:03:00;49591.44;;;-146.94;96.46
56737;BME280;42618;51.226;4.910;2022-07-23T04:05:28;49587.47;;;-146.94;96.91
56737;BME280;42618;51.226;4.910;2022-07-23T04:08:04;49585.47;;;-146.94;96.55
56737;BME280;42618;51.226;4.910;2022-07-23T04:10:32;49583.47;;;-146.94;96.25
56737;BME280;42618;51.226;4.910;2022-07-23T04:12:59;49575.50;;;-146.94;97.01
56737;BME280;42618;51.226;4.910;2022-07-23T04:15:26;49575.50;;;-146.94;96.93
56737;BME280;42618;51.226;4.910;2022-07-23T04:17:53;49575.50;;;-146.94;96.92
56737;BME280;42618;51.226;4.910;2022-07-23T04:20:25;49549.59;;;-146.94;97.22
56737;BME280;42618;51.226;4.910;2022-07-23T04:22:56;49579.47;;;-146.94;97.12
56737;BME280;42618;51.226;4.910;2022-07-23T04:25:23;49581.47;;;-146.94;97.17
56737;BME280;42618;51.226;4.910;2022-07-23T04:27:50;49603.41;;;-146.94;96.86
56737;BME280;42618;51.226;4.910;2022-07-23T04:30:17;49577.50;;;-146.94;96.59
56737;BME280;42618;51.226;4.910;2022-07-23T04:32:44;49611.38;;;-146.94;96.93
56737;BME280;42618;51.226;4.910;2022-07-23T04:35:21;49571.50;;;-146.94;97.09
56737;BME280;42618;51.226;4.910;2022-07-23T04:37:51;49569.50;;;-146.94;97.26
56737;BME280;42618;51.226;4.910;2022-07-23T04:40:18;49567.53;;;-146.94;97.85
56737;BME280;42618;51.226;4.910;2022-07-23T04:42:48;49527.66;;;-146.94;97.69
56737;BME280;42618;51.226;4.910;2022-07-23T04:45:15;49577.50;;;-146.94;97.32
56737;BME280;42618;51.226;4.910;2022-07-23T04:47:43;49567.53;;;-146.94;96.79
56737;BME280;42618;51.226;4.910;2022-07-23T04:50:11;49587.47;;;-146.94;96.85
56737;BME280;42618;51.226;4.910;2022-07-23T04:52:39;49591.44;;;-146.94;96.78
56737;BME280;42618;51.226;4.910;2022-07-23T04:55:06;49583.47;;;-146.94;96.86
56737;BME280;42618;51.226;4.910;2022-07-23T04:57:33;49593.44;;;-146.94;97.05
56737;BME280;42618;51.226;4.910;2022-07-23T05:00:01;49597.44;;;-146.94;96.58
56737;BME280;42618;51.226;4.910;2022-07-23T05:02:28;49583.47;;;-146.94;96.79
56737;BME280;42618;51.226;4.910;2022-07-23T05:04:55;49563.53;;;-146.94;96.14
56737;BME280;42618;51.226;4.910;2022-07-23T05:07:22;49609.38;;;-146.94;95.81
56737;BME280;42618;51.226;4.910;2022-07-23T05:09:49;49591.44;;;-146.94;95.40
56737;BME280;42618;51.226;4.910;2022-07-23T05:12:16;49619.34;;;-146.94;96.40
56737;BME280;42618;51.226;4.910;2022-07-23T05:14:43;49581.47;;;-146.94;96.57
56737;BME280;42618;51.226;4.910;2022-07-23T05:17:10;49581.47;;;-146.94;96.70
56737;BME280;42618;51.226;4.910;2022-07-23T05:19:37;49569.50;;;-146.94;96.49
56737;BME280;42618;51.226;4.910;2022-07-23T05:22:04;49553.56;;;-146.94;96.61
56737;BME280;42618;51.226;4.910;2022-07-23T05:24:31;49585.47;;;-146.94;96.54
56737;BME280;42618;51.226;4.910;2022-07-23T05:26:58;49601.41;;;-146.94;96.65
56737;BME280;42618;51.226;4.910;2022-07-23T05:29:25;49537.63;;;-146.94;96.19
56737;BME280;42618;51.226;4.910;2022-07-23T05:31:52;49579.47;;;-146.94;96.04
56737;BME280;42618;51.226;4.910;2022-07-23T05:34:23;49511.72;;;-146.94;96.15
56737;BME280;42618;51.226;4.910;2022-07-23T05:36:49;49579.47;;;-146.94;95.41
56737;BME280;42618;51.226;4.910;2022-07-23T05:39:16;49569.50;;;-146.94;94.67
56737;BME280;42618;51.226;4.910;2022-07-23T05:41:43;49579.47;;;-146.94;94.76
56737;BME280;42618;51.226;4.910;2022-07-23T05:44:10;49551.56;;;-146.94;95.13
56737;BME280;42618;51.226;4.910;2022-07-23T05:46:39;49571.50;;;-146.94;95.04
56737;BME280;42618;51.226;4.910;2022-07-23T05:49:09;49545.59;;;-146.94;94.53
56737;BME280;42618;51.226;4.910;2022-07-23T05:52:06;49559.56;;;-146.94;94.39
56737;BME280;42618;51.226;4.910;2022-07-23T05:54:59;49567.53;;;-146.94;93.08
56737;BME280;42618;51.226;4.910;2022-07-23T05:57:25;49555.56;;;-146.94;92.42
56737;BME280;42618;51.226;4.910;2022-07-23T05:59:52;49587.47;;;-146.94;92.25
56737;BME280;42618;51.226;4.910;2022-07-23T06:02:19;49539.63;;;-146.94;92.31
56737;BME280;42618;51.226;4.910;2022-07-23T06:04:46;49583.47;;;-146.94;92.38
56737;BME280;42618;51.226;4.910;2022-07-23T06:07:22;49549.59;;;-146.94;91.38
56737;BME280;42618;51.226;4.910;2022-07-23T06:09:48;49559.56;;;-146.94;90.30
56737;BME280;42618;51.226;4.910;2022-07-23T06:12:16;49581.47;;;-146.94;89.00
56737;BME280;42618;51.226;4.910;2022-07-23T06:14:43;49551.56;;;-146.94;88.98
56737;BME280;42618;51.226;4.910;2022-07-23T06:17:10;49545.59;;;-146.94;89.25
56737;BME280;42618;51.226;4.910;2022-07-23T06:19:37;49515.69;;;-146.94;88.66
56737;BME280;42618;51.226;4.910;2022-07-23T06:22:04;49549.59;;;-146.94;88.36
56737;BME280;42618;51.226;4.910;2022-07-23T06:24:31;49557.56;;;-146.94;87.92
56737;BME280;42618;51.226;4.910;2022-07-23T06:26:57;49541.59;;;-146.94;89.17
56737;BME280;42618;51.226;4.910;2022-07-23T06:29:24;49559.56;;;-146.94;88.52
56737;BME280;42618;51.226;4.910;2022-07-23T06:31:51;49543.59;;;-146.94;87.14
56737;BME280;42618;51.226;4.910;2022-07-23T06:34:18;49553.56;;;-146.94;86.38
56737;BME280;42618;51.226;4.910;2022-07-23T06:36:44;49535.63;;;-146.94;86.29
56737;BME280;42618;51.226;4.910;2022-07-23T06:39:11;49541.59;;;-146.94;87.01
56737;BME280;42618;51.226;4.910;2022-07-23T06:41:42;49565.53;;;-146.94;86.44
56737;BME280;42618;51.226;4.910;2022-07-23T06:44:16;49559.56;;;-146.94;85.11
56737;BME280;42618;51.226;4.910;2022-07-23T06:46:43;49557.56;;;-146.94;84.95
56737;BME280;42618;51.226;4.910;2022-07-23T06:49:10;49547.59;;;-146.94;84.28
56737;BME280;42618;51.226;4.910;2022-07-23T06:51:37;49531.63;;;-146.94;83.51
56737;BME280;42618;51.226;4.910;2022-07-23T06:54:04;49531.63;;;-146.94;82.66
56737;BME280;42618;51.226;4.910;2022-07-23T06:56:31;49535.63;;;-146.94;81.51
56737;BME280;42618;51.226;4.910;2022-07-23T06:58:58;49547.59;;;-146.94;81.19
56737;BME280;42618;51.226;4.910;2022-07-23T07:01:26;49527.66;;;-146.94;81.68
56737;BME280;42618;51.226;4.910;2022-07-23T07:03:53;49529.66;;;-146.94;81.22
56737;BME280;42618;51.226;4.910;2022-07-23T07:06:19;49493.75;;;-146.94;80.76
56737;BME280;42618;51.226;4.910;2022-07-23T07:08:46;49505.72;;;-146.94;81.50
56737;BME280;42618;51.226;4.910;2022-07-23T07:11:13;49511.72;;;-146.94;81.10
56737;BME280;42618;51.226;4.910;2022-07-23T07:13:39;49523.66;;;-146.94;80.19
56737;BME280;42618;51.226;4.910;2022-07-23T07:16:06;49547.59;;;-146.94;79.99
56737;BME280;42618;51.226;4.910;2022-07-23T07:18:33;49543.59;;;-146.94;79.30
56737;BME280;42618;51.226;4.910;2022-07-23T07:21:00;49527.66;;;-146.94;78.84
56737;BME280;42618;51.226;4.910;2022-07-23T07:23:26;49481.81;;;-146.94;77.48
56737;BME280;42618;51.226;4.910;2022-07-23T07:25:53;49491.78;;;-146.94;77.68
56737;BME280;42618;51.226;4.910;2022-07-23T07:28:20;49489.78;;;-146.94;75.73
56737;BME280;42618;51.226;4.910;2022-07-23T07:30:46;49495.75;;;-146.94;75.29
56737;BME280;42618;51.226;4.910;2022-07-23T07:33:13;49513.69;;;-146.94;74.94
56737;BME280;42618;51.226;4.910;2022-07-23T07:35:41;49505.72;;;-146.94;75.65
56737;BME280;42618;51.226;4.910;2022-07-23T07:38:08;49501.75;;;-146.94;75.63
56737;BME280;42618;51.226;4.910;2022-07-23T07:40:35;49531.63;;;-146.94;73.57
56737;BME280;42618;51.226;4.910;2022-07-23T07:43:02;49541.59;;;-146.94;74.40
56737;BME280;42618;51.226;4.910;2022-07-23T07:45:30;49527.66;;;-146.94;73.64
56737;BME280;42618;51.226;4.910;2022-07-23T07:47:56;49503.72;;;-146.94;75.51
56737;BME280;42618;51.226;4.910;2022-07-23T07:50:24;49563.53;;;-146.94;73.58
56737;BME280;42618;51.226;4.910;2022-07-23T07:52:51;49535.63;;;-146.94;73.09
56737;BME280;42618;51.226;4.910;2022-07-23T07:55:18;49503.72;;;-146.94;73.03
56737;BME280;42618;51.226;4.910;2022-07-23T07:57:45;49513.69;;;-146.94;73.82
56737;BME280;42618;51.226;4.910;2022-07-23T08:00:15;49487.78;;;-146.94;72.57
56737;BME280;42618;51.226;4.910;2022-07-23T08:02:50;49523.66;;;-146.94;71.91
56737;BME280;42618;51.226;4.910;2022-07-23T08:05:25;49519.69;;;-146.94;69.97
56737;BME280;42618;51.226;4.910;2022-07-23T08:07:55;49495.75;;;-146.94;69.34
56737;BME280;42618;51.226;4.910;2022-07-23T08:10:23;49481.81;;;-146.94;68.98
56737;BME280;42618;51.226;4.910;2022-07-23T08:12:51;49489.78;;;-146.94;67.91
56737;BME280;42618;51.226;4.910;2022-07-23T08:15:21;49501.75;;;-146.94;67.41
56737;BME280;42618;51.226;4.910;2022-07-23T08:17:48;49519.69;;;-146.94;65.92
56737;BME280;42618;51.226;4.910;2022-07-23T08:20:17;49471.84;;;-146.94;64.25
56737;BME280;42618;51.226;4.910;2022-07-23T08:25:12;49475.81;;;-146.94;64.43
56737;BME280;42618;51.226;4.910;2022-07-23T08:27:39;49463.88;;;-146.94;65.35
56737;BME280;42618;51.226;4.910;2022-07-23T08:30:07;49477.81;;;-146.94;63.48
56737;BME280;42618;51.226;4.910;2022-07-23T08:32:50;49461.88;;;-146.94;61.63
56737;BME280;42618;51.226;4.910;2022-07-23T08:35:21;49475.81;;;-146.94;62.05
56737;BME280;42618;51.226;4.910;2022-07-23T08:37:48;49455.88;;;-146.94;62.90
56737;BME280;42618;51.226;4.910;2022-07-23T08:40:15;49481.81;;;-146.94;62.94
56737;BME280;42618;51.226;4.910;2022-07-23T08:42:42;49451.91;;;-146.94;62.44
56737;BME280;42618;51.226;4.910;2022-07-23T08:45:09;49441.94;;;-146.94;62.28
56737;BME280;42618;51.226;4.910;2022-07-23T08:47:39;49497.75;;;-146.94;61.74
56737;BME280;42618;51.226;4.910;2022-07-23T08:50:07;49461.88;;;-146.94;59.43
56737;BME280;42618;51.226;4.910;2022-07-23T08:52:34;49433.97;;;-146.94;60.18
56737;BME280;42618;51.226;4.910;2022-07-23T08:55:02;49467.84;;;-146.94;59.93
56737;BME280;42618;51.226;4.910;2022-07-23T08:57:28;49459.88;;;-146.94;58.65
56737;BME280;42618;51.226;4.910;2022-07-23T08:59:56;49418.00;;;-146.94;59.87
56737;BME280;42618;51.226;4.910;2022-07-23T09:02:23;49406.06;;;-146.94;59.67
56737;BME280;42618;51.226;4.910;2022-07-23T09:04:49;49459.88;;;-146.94;60.00
56737;BME280;42618;51.226;4.910;2022-07-23T09:07:16;49463.88;;;-146.94;58.88
56737;BME280;42618;51.226;4.910;2022-07-23T09:09:43;49431.97;;;-146.94;58.03
56737;BME280;42618;51.226;4.910;2022-07-23T09:12:10;49439.94;;;-146.94;57.38
56737;BME280;42618;51.226;4.910;2022-07-23T09:19:36;49416.03;;;-146.94;56.62
56737;BME280;42618;51.226;4.910;2022-07-23T09:22:23;49455.88;;;-146.94;55.10
56737;BME280;42618;51.226;4.910;2022-07-23T09:30:27;49431.97;;;-146.94;54.16
56737;BME280;42618;51.226;4.910;2022-07-23T09:33:04;49461.88;;;-146.94;54.00
56737;BME280;42618;51.226;4.910;2022-07-23T09:35:52;49424.00;;;-146.94;54.49
56737;BME280;42618;51.226;4.910;2022-07-23T09:38:21;49431.97;;;-146.94;52.49
56737;BME280;42618;51.226;4.910;2022-07-23T09:41:07;49431.97;;;-146.94;53.77
56737;BME280;42618;51.226;4.910;2022-07-23T09:43:34;49404.06;;;-146.94;54.09
56737;BME280;42618;51.226;4.910;2022-07-23T09:48:47;49424.00;;;-146.94;53.07
56737;BME280;42618;51.226;4.910;2022-07-23T09:51:14;49404.06;;;-146.94;53.18
56737;BME280;42618;51.226;4.910;2022-07-23T09:53:53;49445.94;;;-146.94;52.19
56737;BME280;42618;51.226;4.910;2022-07-23T09:56:20;49429.97;;;-146.94;51.78
56737;BME280;42618;51.226;4.910;2022-07-23T09:58:54;49392.09;;;-146.94;51.38
56737;BME280;42618;51.226;4.910;2022-07-23T10:01:32;49376.16;;;-146.94;50.79
56737;BME280;42618;51.226;4.910;2022-07-23T10:04:00;49404.06;;;-146.94;49.59
56737;BME280;42618;51.226;4.910;2022-07-23T10:07:08;49400.06;;;-146.94;48.97
56737;BME280;42618;51.226;4.910;2022-07-23T10:09:52;49412.03;;;-146.94;47.89
56737;BME280;42618;51.226;4.910;2022-07-23T10:12:45;49400.06;;;-146.94;49.04
56737;BME280;42618;51.226;4.910;2022-07-23T10:15:18;49404.06;;;-146.94;47.18
56737;BME280;42618;51.226;4.910;2022-07-23T10:17:45;49402.06;;;-146.94;47.10
56737;BME280;42618;51.226;4.910;2022-07-23T10:20:11;49420.00;;;-146.94;47.75
56737;BME280;42618;51.226;4.910;2022-07-23T10:22:44;49388.13;;;-146.94;47.72
56737;BME280;42618;51.226;4.910;2022-07-23T10:25:24;49435.97;;;-146.94;46.59
56737;BME280;42618;51.226;4.910;2022-07-23T10:31:31;49435.97;;;-146.94;46.17
56737;BME280;42618;51.226;4.910;2022-07-23T10:39:33;49406.06;;;-146.94;45.54
56737;BME280;42618;51.226;4.910;2022-07-23T10:42:15;49394.09;;;-146.94;44.38
56737;BME280;42618;51.226;4.910;2022-07-23T10:44:48;49360.22;;;-146.94;45.44
56737;BME280;42618;51.226;4.910;2022-07-23T10:47:27;49360.22;;;-146.94;46.28
56737;BME280;42618;51.226;4.910;2022-07-23T10:58:03;49378.16;;;-146.94;42.21
56737;BME280;42618;51.226;4.910;2022-07-23T11:00:34;49406.06;;;-146.94;38.38
56737;BME280;42618;51.226;4.910;2022-07-23T11:03:05;49342.28;;;-146.94;40.22
56737;BME280;42618;51.226;4.910;2022-07-23T11:05:44;49316.34;;;-146.94;38.94
56737;BME280;42618;51.226;4.910;2022-07-23T11:08:19;49388.13;;;-146.94;38.83
56737;BME280;42618;51.226;4.910;2022-07-23T11:13:49;49392.09;;;-146.94;40.91
56737;BME280;42618;51.226;4.910;2022-07-23T11:16:21;49388.13;;;-146.94;42.30
56737;BME280;42618;51.226;4.910;2022-07-23T11:18:54;49394.09;;;-146.94;41.19
56737;BME280;42618;51.226;4.910;2022-07-23T11:32:05;49356.22;;;-146.94;41.54
56737;BME280;42618;51.226;4.910;2022-07-23T11:37:08;49358.22;;;-146.94;39.74
56737;BME280;42618;51.226;4.910;2022-07-23T11:39:36;49376.16;;;-146.94;40.65
56737;BME280;42618;51.226;4.910;2022-07-23T11:42:05;49342.28;;;-146.94;39.70
56737;BME280;42618;51.226;4.910;2022-07-23T11:44:34;49316.34;;;-146.94;38.21
56737;BME280;42618;51.226;4.910;2022-07-23T11:47:09;49356.22;;;-146.94;38.66
56737;BME280;42618;51.226;4.910;2022-07-23T11:49:36;49336.28;;;-146.94;38.66
56737;BME280;42618;51.226;4.910;2022-07-23T11:52:12;49354.22;;;-146.94;37.48
56737;BME280;42618;51.226;4.910;2022-07-23T11:54:49;49322.34;;;-146.94;36.93
56737;BME280;42618;51.226;4.910;2022-07-23T11:57:17;49338.28;;;-146.94;38.03
56737;BME280;42618;51.226;4.910;2022-07-23T11:59:46;49312.38;;;-146.94;36.81
56737;BME280;42618;51.226;4.910;2022-07-23T12:02:13;49368.19;;;-146.94;36.69
56737;BME280;42618;51.226;4.910;2022-07-23T12:04:44;49336.28;;;-146.94;36.74
56737;BME280;42618;51.226;4.910;2022-07-23T12:09:50;49294.44;;;-146.94;36.41
56737;BME280;42618;51.226;4.910;2022-07-23T12:12:17;49308.38;;;-146.94;35.73
56737;BME280;42618;51.226;4.910;2022-07-23T12:14:55;49354.22;;;-146.94;35.76
56737;BME280;42618;51.226;4.910;2022-07-23T12:17:31;49334.28;;;-146.94;36.21
56737;BME280;42618;51.226;4.910;2022-07-23T12:19:59;49348.25;;;-146.94;36.44
56737;BME280;42618;51.226;4.910;2022-07-23T12:22:33;49358.22;;;-146.94;36.60
56737;BME280;42618;51.226;4.910;2022-07-23T12:25:06;49322.34;;;-146.94;35.55
56737;BME280;42618;51.226;4.910;2022-07-23T12:27:34;49334.28;;;-146.94;35.30
56737;BME280;42618;51.226;4.910;2022-07-23T12:33:08;49348.25;;;-146.94;35.79
56737;BME280;42618;51.226;4.910;2022-07-23T12:35:38;49314.34;;;-146.94;34.75
56737;BME280;42618;51.226;4.910;2022-07-23T12:38:09;49304.41;;;-146.94;33.96
56737;BME280;42618;51.226;4.910;2022-07-23T12:40:57;49358.22;;;-146.94;34.34
56737;BME280;42618;51.226;4.910;2022-07-23T12:43:25;49320.34;;;-146.94;33.93
56737;BME280;42618;51.226;4.910;2022-07-23T12:50:54;49362.19;;;-146.94;35.51
56737;BME280;42618;51.226;4.910;2022-07-23T12:53:39;49324.31;;;-146.94;33.45
56737;BME280;42618;51.226;4.910;2022-07-23T12:56:08;49324.31;;;-146.94;34.50
56737;BME280;42618;51.226;4.910;2022-07-23T12:58:52;49328.31;;;-146.94;33.80
56737;BME280;42618;51.226;4.910;2022-07-23T13:06:47;49308.38;;;-146.94;33.19
56737;BME280;42618;51.226;4.910;2022-07-23T13:09:17;49340.28;;;-146.94;33.77
56737;BME280;42618;51.226;4.910;2022-07-23T13:11:45;49328.31;;;-146.94;32.95
56737;BME280;42618;51.226;4.910;2022-07-23T13:14:14;49308.38;;;-146.94;32.58
56737;BME280;42618;51.226;4.910;2022-07-23T13:16:43;49340.28;;;-146.94;33.56
56737;BME280;42618;51.226;4.910;2022-07-23T13:19:10;49330.31;;;-146.94;33.50
56737;BME280;42618;51.226;4.910;2022-07-23T13:21:57;49328.31;;;-146.94;33.09
56737;BME280;42618;51.226;4.910;2022-07-23T13:24:24;49326.31;;;-146.94;33.32
56737;BME280;42618;51.226;4.910;2022-07-23T13:26:51;49284.47;;;-146.94;33.11
56737;BME280;42618;51.226;4.910;2022-07-23T13:29:18;49286.44;;;-146.94;32.31
56737;BME280;42618;51.226;4.910;2022-07-23T13:31:46;49302.41;;;-146.94;32.44
56737;BME280;42618;51.226;4.910;2022-07-23T13:34:14;49306.38;;;-146.94;32.02
56737;BME280;42618;51.226;4.910;2022-07-23T13:36:41;49304.41;;;-146.94;32.49
56737;BME280;42618;51.226;4.910;2022-07-23T13:39:13;49300.41;;;-146.94;32.76
56737;BME280;42618;51.226;4.910;2022-07-23T13:41:40;49320.34;;;-146.94;31.50
56737;BME280;42618;51.226;4.910;2022-07-23T13:44:17;49316.34;;;-146.94;32.60
56737;BME280;42618;51.226;4.910;2022-07-23T13:46:45;49310.38;;;-146.94;33.79
56737;BME280;42618;51.226;4.910;2022-07-23T13:49:13;49330.31;;;-146.94;33.94
56737;BME280;42618;51.226;4.910;2022-07-23T13:51:41;49274.50;;;-146.94;33.64
56737;BME280;42618;51.226;4.910;2022-07-23T13:54:08;49282.47;;;-146.94;33.28
56737;BME280;42618;51.226;4.910;2022-07-23T13:56:35;49344.25;;;-146.94;33.24